sensor_id;sensor_type;location;lat;lon;timestamp;temperature;humidity
58529;DHT22;44322;52.968;5.816;2022-08-01T00:00:34;18.20;99.90
58529;DHT22;44322;52.968;5.816;2022-08-01T00:03:00;18.30;99.90
58529;DHT22;44322;52.968;5.816;2022-08-01T00:05:26;18.30;99.90
58529;DHT22;44322;52.968;5.816;2022-08-01T00:07:52;18.30;99.90
58529;DHT22;44322;52.968;5.816;2022-08-01T00:10:18;18.30;99.90
58529;DHT22;44322;52.968;5.816;2022-08-01T00:12:45;18.30;99.90
58529;DHT22;44322;52.968;5.816;2022-08-01T00:15:13;18.30;99.90
58529;DHT22;44322;52.968;5.816;2022-08-01T00:17:39;18.20;99.90
58529;DHT22;44322;52.968;5.816;2022-08-01T00:20:07;18.20;99.90
58529;DHT22;44322;52.968;5.816;2022-08-01T00:22:34;18.20;99.90
58529;DHT22;44322;52.968;5.816;2022-08-01T00:25:01;18.20;99.90
58529;DHT22;44322;52.968;5.816;2022-08-01T00:27:28;18.20;99.90
58529;DHT22;44322;52.968;5.816;2022-08-01T00:29:53;18.20;99.90
58529;DHT22;44322;52.968;5.816;2022-08-01T00:32:19;18.20;99.90
58529;DHT22;44322;52.968;5.816;2022-08-01T00:34:45;18.20;99.90
58529;DHT22;44322;52.968;5.816;2022-08-01T00:37:11;18.20;99.90
58529;DHT22;44322;52.968;5.816;2022-08-01T00:39:37;18.20;99.90
58529;DHT22;44322;52.968;5.816;2022-08-01T00:42:07;18.20;99.90
58529;DHT22;44322;52.968;5.816;2022-08-01T00:44:37;18.20;99.90
58529;DHT22;44322;52.968;5.816;2022-08-01T00:47:04;18.20;99.90
58529;DHT22;44322;52.968;5.816;2022-08-01T00:49:30;18.20;99.90
58529;DHT22;44322;52.968;5.816;2022-08-01T00:51:56;18.20;99.90
58529;DHT22;44322;52.968;5.816;2022-08-01T00:54:25;18.20;99.90
58529;DHT22;44322;52.968;5.816;2022-08-01T00:56:51;18.20;99.90
58529;DHT22;44322;52.968;5.816;2022-08-01T00:59:17;18.20;99.90
58529;DHT22;44322;52.968;5.816;2022-08-01T01:01:44;18.10;99.90
58529;DHT22;44322;52.968;5.816;2022-08-01T01:04:10;18.10;99.90
58529;DHT22;44322;52.968;5.816;2022-08-01T01:06:59;18.10;99.90
58529;DHT22;44322;52.968;5.816;2022-08-01T01:09:52;18.10;99.90
58529;DHT22;44322;52.968;5.816;2022-08-01T01:12:37;18.10;99.90
58529;DHT22;44322;52.968;5.816;2022-08-01T01:15:14;18.10;99.90
58529;DHT22;44322;52.968;5.816;2022-08-01T01:17:46;18.10;99.90
58529;DHT22;44322;52.968;5.816;2022-08-01T01:20:14;18.00;99.90
58529;DHT22;44322;52.968;5.816;2022-08-01T01:23:05;18.00;99.90
58529;DHT22;44322;52.968;5.816;2022-08-01T01:29:14;18.00;99.90
58529;DHT22;44322;52.968;5.816;2022-08-01T01:31:49;18.00;99.90
58529;DHT22;44322;52.968;5.816;2022-08-01T01:34:18;18.00;99.90
58529;DHT22;44322;52.968;5.816;2022-08-01T01:36:46;18.00;99.90
58529;DHT22;44322;52.968;5.816;2022-08-01T01:39:14;18.00;99.90
58529;DHT22;44322;52.968;5.816;2022-08-01T01:41:41;18.00;99.90
58529;DHT22;44322;52.968;5.816;2022-08-01T01:44:09;18.00;99.90
58529;DHT22;44322;52.968;5.816;2022-08-01T01:46:36;18.00;99.90
58529;DHT22;44322;52.968;5.816;2022-08-01T01:49:03;17.90;99.90
58529;DHT22;44322;52.968;5.816;2022-08-01T01:51:30;17.90;99.90
58529;DHT22;44322;52.968;5.816;2022-08-01T01:53:57;17.90;99.90
58529;DHT22;44322;52.968;5.816;2022-08-01T01:56:24;17.90;99.90
58529;DHT22;44322;52.968;5.816;2022-08-01T01:58:53;17.90;99.90
58529;DHT22;44322;52.968;5.816;2022-08-01T02:01:21;17.90;99.90
58529;DHT22;44322;52.968;5.816;2022-08-01T02:03:51;17.80;99.90
58529;DHT22;44322;52.968;5.816;2022-08-01T02:06:20;17.90;99.90
58529;DHT22;44322;52.968;5.816;2022-08-01T02:08:47;17.80;99.90
58529;DHT22;44322;52.968;5.816;2022-08-01T02:11:13;17.80;99.90
58529;DHT22;44322;52.968;5.816;2022-08-01T02:13:57;17.80;99.90
58529;DHT22;44322;52.968;5.816;2022-08-01T02:16:29;17.90;99.90
58529;DHT22;44322;52.968;5.816;2022-08-01T02:18:57;17.80;99.90
58529;DHT22;44322;52.968;5.816;2022-08-01T02:24:21;17.90;99.90
58529;DHT22;44322;52.968;5.816;2022-08-01T02:26:52;17.90;99.90
58529;DHT22;44322;52.968;5.816;2022-08-01T02:29:24;17.90;99.90
58529;DHT22;44322;52.968;5.816;2022-08-01T02:31:54;17.90;99.90
58529;DHT22;44322;52.968;5.816;2022-08-01T02:34:21;17.80;99.90
58529;DHT22;44322;52.968;5.816;2022-08-01T02:36:48;17.80;99.90
58529;DHT22;44322;52.968;5.816;2022-08-01T02:39:16;17.80;99.90
58529;DHT22;44322;52.968;5.816;2022-08-01T02:41:47;17.80;99.90
58529;DHT22;44322;52.968;5.816;2022-08-01T02:44:26;17.80;99.90
58529;DHT22;44322;52.968;5.816;2022-08-01T02:47:01;17.80;99.90
58529;DHT22;44322;52.968;5.816;2022-08-01T02:49:36;17.80;99.90
58529;DHT22;44322;52.968;5.816;2022-08-01T02:52:08;17.70;99.90
58529;DHT22;44322;52.968;5.816;2022-08-01T02:54:36;17.80;99.90
58529;DHT22;44322;52.968;5.816;2022-08-01T02:57:03;17.80;99.90
58529;DHT22;44322;52.968;5.816;2022-08-01T02:59:30;17.80;99.90
58529;DHT22;44322;52.968;5.816;2022-08-01T03:01:57;17.80;99.90
58529;DHT22;44322;52.968;5.816;2022-08-01T03:04:25;17.70;99.90
58529;DHT22;44322;52.968;5.816;2022-08-01T03:06:54;17.80;99.90
58529;DHT22;44322;52.968;5.816;2022-08-01T03:09:23;17.80;99.90
58529;DHT22;44322;52.968;5.816;2022-08-01T03:11:49;17.80;99.90
58529;DHT22;44322;52.968;5.816;2022-08-01T03:14:18;17.80;99.90
58529;DHT22;44322;52.968;5.816;2022-08-01T03:16:46;17.80;99.90
58529;DHT22;44322;52.968;5.816;2022-08-01T03:19:13;17.80;99.90
58529;DHT22;44322;52.968;5.816;2022-08-01T03:21:40;17.70;99.90
58529;DHT22;44322;52.968;5.816;2022-08-01T03:24:07;17.70;99.90
58529;DHT22;44322;52.968;5.816;2022-08-01T03:26:36;17.80;99.90
58529;DHT22;44322;52.968;5.816;2022-08-01T03:29:05;17.80;99.90
58529;DHT22;44322;52.968;5.816;2022-08-01T03:31:38;17.80;99.90
58529;DHT22;44322;52.968;5.816;2022-08-01T03:34:08;17.80;99.90
58529;DHT22;44322;52.968;5.816;2022-08-01T03:36:46;17.80;99.90
58529;DHT22;44322;52.968;5.816;2022-08-01T03:39:14;17.80;99.90
58529;DHT22;44322;52.968;5.816;2022-08-01T03:41:46;17.80;99.90
58529;DHT22;44322;52.968;5.816;2022-08-01T03:44:15;17.70;99.90
58529;DHT22;44322;52.968;5.816;2022-08-01T03:46:55;17.70;99.90
58529;DHT22;44322;52.968;5.816;2022-08-01T03:49:25;17.70;99.90
58529;DHT22;44322;52.968;5.816;2022-08-01T03:51:55;17.70;99.90
58529;DHT22;44322;52.968;5.816;2022-08-01T03:54:25;17.70;99.90
58529;DHT22;44322;52.968;5.816;2022-08-01T03:56:53;17.70;99.90
58529;DHT22;44322;52.968;5.816;2022-08-01T03:59:20;17.70;99.90
58529;DHT22;44322;52.968;5.816;2022-08-01T04:01:47;17.70;99.90
58529;DHT22;44322;52.968;5.816;2022-08-01T04:04:14;17.70;99.90
58529;DHT22;44322;52.968;5.816;2022-08-01T04:06:41;17.70;99.90
58529;DHT22;44322;52.968;5.816;2022-08-01T04:09:07;17.60;99.90
58529;DHT22;44322;52.968;5.816;2022-08-01T04:11:33;17.60;99.90
58529;DHT22;44322;52.968;5.816;2022-08-01T04:13:59;17.60;99.90
58529;DHT22;44322;52.968;5.816;2022-08-01T04:16:26;17.60;99.90
58529;DHT22;44322;52.968;5.816;2022-08-01T04:18:51;17.60;99.90
58529;DHT22;44322;52.968;5.816;2022-08-01T04:21:20;17.60;99.90
58529;DHT22;44322;52.968;5.816;2022-08-01T04:23:49;17.60;99.90
58529;DHT22;44322;52.968;5.816;2022-08-01T04:26:18;17.60;99.90
58529;DHT22;44322;52.968;5.816;2022-08-01T04:28:46;17.60;99.90
58529;DHT22;44322;52.968;5.816;2022-08-01T04:31:16;17.60;99.90
58529;DHT22;44322;52.968;5.816;2022-08-01T04:33:46;17.60;99.90
58529;DHT22;44322;52.968;5.816;2022-08-01T04:36:14;17.50;99.90
58529;DHT22;44322;52.968;5.816;2022-08-01T04:38:42;17.50;99.90
58529;DHT22;44322;52.968;5.816;2022-08-01T04:41:12;17.50;99.90
58529;DHT22;44322;52.968;5.816;2022-08-01T04:43:39;17.50;99.90
58529;DHT22;44322;52.968;5.816;2022-08-01T04:46:06;17.50;99.90
58529;DHT22;44322;52.968;5.816;2022-08-01T04:48:36;17.50;99.90
58529;DHT22;44322;52.968;5.816;2022-08-01T04:51:02;17.50;99.90
58529;DHT22;44322;52.968;5.816;2022-08-01T04:53:28;17.50;99.90
58529;DHT22;44322;52.968;5.816;2022-08-01T04:55:54;17.50;99.90
58529;DHT22;44322;52.968;5.816;2022-08-01T04:58:20;17.40;99.90
58529;DHT22;44322;52.968;5.816;2022-08-01T05:00:46;17.50;99.90
58529;DHT22;44322;52.968;5.816;2022-08-01T05:03:12;17.40;99.90
58529;DHT22;44322;52.968;5.816;2022-08-01T05:05:37;17.40;99.90
58529;DHT22;44322;52.968;5.816;2022-08-01T05:08:03;17.40;99.90
58529;DHT22;44322;52.968;5.816;2022-08-01T05:10:31;17.40;99.90
58529;DHT22;44322;52.968;5.816;2022-08-01T05:12:57;17.40;99.90
58529;DHT22;44322;52.968;5.816;2022-08-01T05:15:23;17.40;99.90
58529;DHT22;44322;52.968;5.816;2022-08-01T05:17:49;17.30;99.90
58529;DHT22;44322;52.968;5.816;2022-08-01T05:20:15;17.30;99.90
58529;DHT22;44322;52.968;5.816;2022-08-01T05:22:41;17.30;99.90
58529;DHT22;44322;52.968;5.816;2022-08-01T05:25:08;17.30;99.90
58529;DHT22;44322;52.968;5.816;2022-08-01T05:27:34;17.30;99.90
58529;DHT22;44322;52.968;5.816;2022-08-01T05:30:08;17.30;99.90
58529;DHT22;44322;52.968;5.816;2022-08-01T05:32:35;17.30;99.90
58529;DHT22;44322;52.968;5.816;2022-08-01T05:35:01;17.30;99.90
58529;DHT22;44322;52.968;5.816;2022-08-01T05:37:27;17.30;99.90
58529;DHT22;44322;52.968;5.816;2022-08-01T05:39:52;17.30;99.90
58529;DHT22;44322;52.968;5.816;2022-08-01T05:42:18;17.30;99.90
58529;DHT22;44322;52.968;5.816;2022-08-01T05:44:44;17.30;99.90
58529;DHT22;44322;52.968;5.816;2022-08-01T05:47:10;17.30;99.90
58529;DHT22;44322;52.968;5.816;2022-08-01T05:49:36;17.30;99.90
58529;DHT22;44322;52.968;5.816;2022-08-01T05:52:01;17.40;99.90
58529;DHT22;44322;52.968;5.816;2022-08-01T05:54:28;17.40;99.90
58529;DHT22;44322;52.968;5.816;2022-08-01T05:56:53;17.40;99.90
58529;DHT22;44322;52.968;5.816;2022-08-01T05:59:25;17.40;99.90
58529;DHT22;44322;52.968;5.816;2022-08-01T06:01:51;17.40;99.90
58529;DHT22;44322;52.968;5.816;2022-08-01T06:04:17;17.50;99.90
58529;DHT22;44322;52.968;5.816;2022-08-01T06:06:43;17.40;99.90
58529;DHT22;44322;52.968;5.816;2022-08-01T06:09:09;17.40;99.90
58529;DHT22;44322;52.968;5.816;2022-08-01T06:11:35;17.50;99.90
58529;DHT22;44322;52.968;5.816;2022-08-01T06:14:00;17.50;99.90
58529;DHT22;44322;52.968;5.816;2022-08-01T06:16:26;17.50;99.90
58529;DHT22;44322;52.968;5.816;2022-08-01T06:18:52;17.50;99.90
58529;DHT22;44322;52.968;5.816;2022-08-01T06:21:18;17.50;99.90
58529;DHT22;44322;52.968;5.816;2022-08-01T06:23:44;17.50;99.90
58529;DHT22;44322;52.968;5.816;2022-08-01T06:26:10;17.50;99.90
58529;DHT22;44322;52.968;5.816;2022-08-01T06:28:36;17.50;99.90
58529;DHT22;44322;52.968;5.816;2022-08-01T06:31:02;17.60;99.90
58529;DHT22;44322;52.968;5.816;2022-08-01T06:33:28;17.60;99.90
58529;DHT22;44322;52.968;5.816;2022-08-01T06:35:54;17.60;99.90
58529;DHT22;44322;52.968;5.816;2022-08-01T06:38:20;17.70;99.90
58529;DHT22;44322;52.968;5.816;2022-08-01T06:40:46;17.70;99.90
58529;DHT22;44322;52.968;5.816;2022-08-01T06:43:12;17.70;99.90
58529;DHT22;44322;52.968;5.816;2022-08-01T06:45:39;17.80;99.90
58529;DHT22;44322;52.968;5.816;2022-08-01T06:48:05;17.80;99.90
58529;DHT22;44322;52.968;5.816;2022-08-01T06:50:31;17.80;99.90
58529;DHT22;44322;52.968;5.816;2022-08-01T06:52:57;17.80;99.90
58529;DHT22;44322;52.968;5.816;2022-08-01T06:55:23;17.90;99.90
58529;DHT22;44322;52.968;5.816;2022-08-01T06:57:51;17.90;99.90
58529;DHT22;44322;52.968;5.816;2022-08-01T07:00:18;17.90;99.90
58529;DHT22;44322;52.968;5.816;2022-08-01T07:02:46;17.90;99.90
58529;DHT22;44322;52.968;5.816;2022-08-01T07:05:12;17.90;99.90
58529;DHT22;44322;52.968;5.816;2022-08-01T07:07:38;17.90;99.90
58529;DHT22;44322;52.968;5.816;2022-08-01T07:10:04;17.90;99.90
58529;DHT22;44322;52.968;5.816;2022-08-01T07:12:30;17.90;99.90
58529;DHT22;44322;52.968;5.816;2022-08-01T07:14:58;17.80;99.90
58529;DHT22;44322;52.968;5.816;2022-08-01T07:17:24;17.80;99.90
58529;DHT22;44322;52.968;5.816;2022-08-01T07:19:50;17.70;99.90
58529;DHT22;44322;52.968;5.816;2022-08-01T07:22:15;17.70;99.90
58529;DHT22;44322;52.968;5.816;2022-08-01T07:24:42;17.70;99.90
58529;DHT22;44322;52.968;5.816;2022-08-01T07:27:08;17.60;99.90
58529;DHT22;44322;52.968;5.816;2022-08-01T07:29:34;17.60;99.90
58529;DHT22;44322;52.968;5.816;2022-08-01T07:32:00;17.60;99.90
58529;DHT22;44322;52.968;5.816;2022-08-01T07:34:26;17.60;99.90
58529;DHT22;44322;52.968;5.816;2022-08-01T07:36:52;17.60;99.90
58529;DHT22;44322;52.968;5.816;2022-08-01T07:39:19;17.70;99.90
58529;DHT22;44322;52.968;5.816;2022-08-01T07:41:44;17.70;99.90
58529;DHT22;44322;52.968;5.816;2022-08-01T07:44:10;17.80;99.90
58529;DHT22;44322;52.968;5.816;2022-08-01T07:46:36;17.80;99.90
58529;DHT22;44322;52.968;5.816;2022-08-01T07:49:02;17.80;99.90
58529;DHT22;44322;52.968;5.816;2022-08-01T07:51:28;17.80;99.90
58529;DHT22;44322;52.968;5.816;2022-08-01T07:53:54;17.80;99.90
58529;DHT22;44322;52.968;5.816;2022-08-01T07:56:19;17.80;99.90
58529;DHT22;44322;52.968;5.816;2022-08-01T07:58:45;17.70;99.90
58529;DHT22;44322;52.968;5.816;2022-08-01T08:01:12;17.70;99.90
58529;DHT22;44322;52.968;5.816;2022-08-01T08:03:38;17.80;99.90
58529;DHT22;44322;52.968;5.816;2022-08-01T08:06:04;17.80;99.90
58529;DHT22;44322;52.968;5.816;2022-08-01T08:08:30;17.90;99.90
58529;DHT22;44322;52.968;5.816;2022-08-01T08:10:55;17.90;99.90
58529;DHT22;44322;52.968;5.816;2022-08-01T08:13:21;17.90;99.90
58529;DHT22;44322;52.968;5.816;2022-08-01T08:15:47;17.90;99.90
58529;DHT22;44322;52.968;5.816;2022-08-01T08:18:13;18.00;99.90
58529;DHT22;44322;52.968;5.816;2022-08-01T08:20:39;18.00;99.90
58529;DHT22;44322;52.968;5.816;2022-08-01T08:23:05;18.10;99.90
58529;DHT22;44322;52.968;5.816;2022-08-01T08:25:51;18.10;99.90
58529;DHT22;44322;52.968;5.816;2022-08-01T08:28:17;18.20;99.90
58529;DHT22;44322;52.968;5.816;2022-08-01T08:30:42;18.20;99.90
58529;DHT22;44322;52.968;5.816;2022-08-01T08:33:08;18.20;99.90
58529;DHT22;44322;52.968;5.816;2022-08-01T08:35:34;18.30;99.90
58529;DHT22;44322;52.968;5.816;2022-08-01T08:38:00;18.30;99.90
58529;DHT22;44322;52.968;5.816;2022-08-01T08:40:30;18.30;99.90
58529;DHT22;44322;52.968;5.816;2022-08-01T08:42:58;18.30;99.90
58529;DHT22;44322;52.968;5.816;2022-08-01T08:45:26;18.40;99.90
58529;DHT22;44322;52.968;5.816;2022-08-01T08:47:53;18.50;99.90
58529;DHT22;44322;52.968;5.816;2022-08-01T08:53:40;18.60;99.90
58529;DHT22;44322;52.968;5.816;2022-08-01T08:56:12;18.70;99.90
58529;DHT22;44322;52.968;5.816;2022-08-01T08:58:44;18.80;99.90
58529;DHT22;44322;52.968;5.816;2022-08-01T09:01:10;18.90;99.90
58529;DHT22;44322;52.968;5.816;2022-08-01T09:03:36;19.00;99.90
58529;DHT22;44322;52.968;5.816;2022-08-01T09:06:02;19.10;99.90
58529;DHT22;44322;52.968;5.816;2022-08-01T09:08:28;19.20;99.90
58529;DHT22;44322;52.968;5.816;2022-08-01T09:10:54;19.30;99.90
58529;DHT22;44322;52.968;5.816;2022-08-01T09:13:20;19.30;99.90
58529;DHT22;44322;52.968;5.816;2022-08-01T09:15:51;19.50;99.90
58529;DHT22;44322;52.968;5.816;2022-08-01T09:18:39;19.50;99.90
58529;DHT22;44322;52.968;5.816;2022-08-01T09:21:13;19.50;99.90
58529;DHT22;44322;52.968;5.816;2022-08-01T09:23:43;19.60;99.90
58529;DHT22;44322;52.968;5.816;2022-08-01T09:26:18;19.70;99.90
58529;DHT22;44322;52.968;5.816;2022-08-01T09:28:45;19.70;99.90
58529;DHT22;44322;52.968;5.816;2022-08-01T09:31:16;19.80;99.90
58529;DHT22;44322;52.968;5.816;2022-08-01T09:33:55;19.80;99.90
58529;DHT22;44322;52.968;5.816;2022-08-01T09:36:27;19.90;99.90
58529;DHT22;44322;52.968;5.816;2022-08-01T09:39:12;20.00;99.90
58529;DHT22;44322;52.968;5.816;2022-08-01T09:41:39;20.00;99.90
58529;DHT22;44322;52.968;5.816;2022-08-01T09:44:05;20.10;99.90
58529;DHT22;44322;52.968;5.816;2022-08-01T09:46:31;20.20;99.90
58529;DHT22;44322;52.968;5.816;2022-08-01T09:49:04;20.30;99.90
58529;DHT22;44322;52.968;5.816;2022-08-01T09:51:33;20.30;99.90
58529;DHT22;44322;52.968;5.816;2022-08-01T09:53:59;20.40;99.90
58529;DHT22;44322;52.968;5.816;2022-08-01T09:56:25;20.30;99.90
58529;DHT22;44322;52.968;5.816;2022-08-01T09:58:54;20.40;99.90
58529;DHT22;44322;52.968;5.816;2022-08-01T10:01:23;20.40;99.90
58529;DHT22;44322;52.968;5.816;2022-08-01T10:04:10;20.30;99.90
58529;DHT22;44322;52.968;5.816;2022-08-01T10:06:37;20.40;99.90
58529;DHT22;44322;52.968;5.816;2022-08-01T10:09:09;20.50;99.90
58529;DHT22;44322;52.968;5.816;2022-08-01T10:11:36;20.60;99.90
58529;DHT22;44322;52.968;5.816;2022-08-01T10:14:05;20.70;99.90
58529;DHT22;44322;52.968;5.816;2022-08-01T10:16:33;20.80;99.90
58529;DHT22;44322;52.968;5.816;2022-08-01T10:19:00;20.70;99.90
58529;DHT22;44322;52.968;5.816;2022-08-01T10:21:27;20.80;99.90
58529;DHT22;44322;52.968;5.816;2022-08-01T10:23:55;20.80;99.90
58529;DHT22;44322;52.968;5.816;2022-08-01T10:26:24;20.90;99.90
58529;DHT22;44322;52.968;5.816;2022-08-01T10:28:51;21.00;99.90
58529;DHT22;44322;52.968;5.816;2022-08-01T10:31:18;21.10;99.90
58529;DHT22;44322;52.968;5.816;2022-08-01T10:33:45;21.20;99.90
58529;DHT22;44322;52.968;5.816;2022-08-01T10:36:11;21.30;99.90
58529;DHT22;44322;52.968;5.816;2022-08-01T10:38:37;21.40;99.90
58529;DHT22;44322;52.968;5.816;2022-08-01T10:41:04;21.40;99.90
58529;DHT22;44322;52.968;5.816;2022-08-01T10:43:31;21.50;99.90
58529;DHT22;44322;52.968;5.816;2022-08-01T10:45:56;21.70;99.90
58529;DHT22;44322;52.968;5.816;2022-08-01T10:51:14;21.90;99.90
58529;DHT22;44322;52.968;5.816;2022-08-01T10:53:53;22.10;99.90
58529;DHT22;44322;52.968;5.816;2022-08-01T10:56:20;22.20;99.20
58529;DHT22;44322;52.968;5.816;2022-08-01T10:58:47;22.40;98.50
58529;DHT22;44322;52.968;5.816;2022-08-01T11:01:23;22.60;99.70
58529;DHT22;44322;52.968;5.816;2022-08-01T11:06:39;23.20;97.80
58529;DHT22;44322;52.968;5.816;2022-08-01T11:09:22;23.30;98.20
58529;DHT22;44322;52.968;5.816;2022-08-01T11:12:11;23.40;97.50
58529;DHT22;44322;52.968;5.816;2022-08-01T11:17:44;23.90;94.90
58529;DHT22;44322;52.968;5.816;2022-08-01T11:20:18;24.10;94.00
58529;DHT22;44322;52.968;5.816;2022-08-01T11:25:26;24.40;88.60
58529;DHT22;44322;52.968;5.816;2022-08-01T11:30:52;24.60;79.70
58529;DHT22;44322;52.968;5.816;2022-08-01T11:39:04;24.60;80.40
58529;DHT22;44322;52.968;5.816;2022-08-01T11:41:36;24.80;82.20
58529;DHT22;44322;52.968;5.816;2022-08-01T11:52:08;25.30;70.50
58529;DHT22;44322;52.968;5.816;2022-08-01T11:57:06;25.70;67.60
58529;DHT22;44322;52.968;5.816;2022-08-01T11:59:46;25.70;64.40
58529;DHT22;44322;52.968;5.816;2022-08-01T12:07:23;26.10;62.60
58529;DHT22;44322;52.968;5.816;2022-08-01T12:10:06;26.20;62.80
58529;DHT22;44322;52.968;5.816;2022-08-01T12:12:34;26.40;59.80
58529;DHT22;44322;52.968;5.816;2022-08-01T12:15:07;26.50;58.10
58529;DHT22;44322;52.968;5.816;2022-08-01T12:17:36;26.70;58.20
58529;DHT22;44322;52.968;5.816;2022-08-01T12:20:08;26.90;58.20
58529;DHT22;44322;52.968;5.816;2022-08-01T12:22:35;27.00;57.40
58529;DHT22;44322;52.968;5.816;2022-08-01T12:25:13;27.10;56.10
58529;DHT22;44322;52.968;5.816;2022-08-01T12:27:41;27.30;55.60
58529;DHT22;44322;52.968;5.816;2022-08-01T12:30:10;27.40;54.30
58529;DHT22;44322;52.968;5.816;2022-08-01T12:32:38;27.50;52.70
58529;DHT22;44322;52.968;5.816;2022-08-01T12:37:32;27.60;51.40
58529;DHT22;44322;52.968;5.816;2022-08-01T12:40:00;27.70;55.30
58529;DHT22;44322;52.968;5.816;2022-08-01T12:42:29;27.70;53.10
58529;DHT22;44322;52.968;5.816;2022-08-01T12:44:55;27.70;52.70
58529;DHT22;44322;52.968;5.816;2022-08-01T12:47:21;27.80;52.10
58529;DHT22;44322;52.968;5.816;2022-08-01T12:49:48;27.90;50.50
58529;DHT22;44322;52.968;5.816;2022-08-01T12:52:15;28.00;50.00
58529;DHT22;44322;52.968;5.816;2022-08-01T12:55:02;28.10;49.00
58529;DHT22;44322;52.968;5.816;2022-08-01T12:57:28;28.40;50.20
58529;DHT22;44322;52.968;5.816;2022-08-01T13:00:10;28.60;48.80
58529;DHT22;44322;52.968;5.816;2022-08-01T13:02:38;28.80;47.00
58529;DHT22;44322;52.968;5.816;2022-08-01T13:05:04;28.70;46.80
58529;DHT22;44322;52.968;5.816;2022-08-01T13:07:38;28.80;50.50
58529;DHT22;44322;52.968;5.816;2022-08-01T13:10:06;28.90;48.70
58529;DHT22;44322;52.968;5.816;2022-08-01T13:12:32;29.00;48.40
58529;DHT22;44322;52.968;5.816;2022-08-01T13:14:58;29.30;48.30
58529;DHT22;44322;52.968;5.816;2022-08-01T13:17:33;29.50;46.40
58529;DHT22;44322;52.968;5.816;2022-08-01T13:20:01;29.70;45.00
58529;DHT22;44322;52.968;5.816;2022-08-01T13:22:37;29.80;45.30
58529;DHT22;44322;52.968;5.816;2022-08-01T13:25:13;30.00;44.70
58529;DHT22;44322;52.968;5.816;2022-08-01T13:27:40;29.90;45.40
58529;DHT22;44322;52.968;5.816;2022-08-01T13:30:17;29.80;46.60
58529;DHT22;44322;52.968;5.816;2022-08-01T13:33:00;29.80;45.50
58529;DHT22;44322;52.968;5.816;2022-08-01T13:35:26;29.50;45.90
58529;DHT22;44322;52.968;5.816;2022-08-01T13:37:52;29.40;45.90
58529;DHT22;44322;52.968;5.816;2022-08-01T13:40:26;29.60;46.40
58529;DHT22;44322;52.968;5.816;2022-08-01T13:42:53;30.00;44.90
58529;DHT22;44322;52.968;5.816;2022-08-01T13:45:22;30.40;45.00
58529;DHT22;44322;52.968;5.816;2022-08-01T13:47:49;30.70;44.70
58529;DHT22;44322;52.968;5.816;2022-08-01T13:50:15;30.90;44.90
58529;DHT22;44322;52.968;5.816;2022-08-01T13:52:42;31.10;44.10
58529;DHT22;44322;52.968;5.816;2022-08-01T13:55:08;31.50;43.20
58529;DHT22;44322;52.968;5.816;2022-08-01T13:57:33;31.80;42.70
58529;DHT22;44322;52.968;5.816;2022-08-01T13:59:59;32.10;42.00
58529;DHT22;44322;52.968;5.816;2022-08-01T14:02:26;32.40;42.00
58529;DHT22;44322;52.968;5.816;2022-08-01T14:04:53;32.70;41.40
58529;DHT22;44322;52.968;5.816;2022-08-01T14:07:21;33.00;40.20
58529;DHT22;44322;52.968;5.816;2022-08-01T14:09:47;32.90;40.20
58529;DHT22;44322;52.968;5.816;2022-08-01T14:12:12;32.80;39.80
58529;DHT22;44322;52.968;5.816;2022-08-01T14:14:38;32.50;39.90
58529;DHT22;44322;52.968;5.816;2022-08-01T14:17:04;32.10;40.70
58529;DHT22;44322;52.968;5.816;2022-08-01T14:19:30;31.60;41.10
58529;DHT22;44322;52.968;5.816;2022-08-01T14:21:56;31.10;41.90
58529;DHT22;44322;52.968;5.816;2022-08-01T14:24:23;30.60;42.70
58529;DHT22;44322;52.968;5.816;2022-08-01T14:26:49;30.10;43.30
58529;DHT22;44322;52.968;5.816;2022-08-01T14:29:15;29.50;44.40
58529;DHT22;44322;52.968;5.816;2022-08-01T14:31:40;29.10;45.10
58529;DHT22;44322;52.968;5.816;2022-08-01T14:34:06;28.80;44.50
58529;DHT22;44322;52.968;5.816;2022-08-01T14:36:32;28.40;44.80
58529;DHT22;44322;52.968;5.816;2022-08-01T14:38:58;28.00;45.20
58529;DHT22;44322;52.968;5.816;2022-08-01T14:41:24;27.70;45.50
58529;DHT22;44322;52.968;5.816;2022-08-01T14:43:50;27.40;45.00
58529;DHT22;44322;52.968;5.816;2022-08-01T14:46:16;27.00;45.50
58529;DHT22;44322;52.968;5.816;2022-08-01T14:48:42;26.70;45.80
58529;DHT22;44322;52.968;5.816;2022-08-01T14:51:08;26.50;46.00
58529;DHT22;44322;52.968;5.816;2022-08-01T14:53:34;26.20;46.00
58529;DHT22;44322;52.968;5.816;2022-08-01T14:56:03;26.00;45.70
58529;DHT22;44322;52.968;5.816;2022-08-01T14:58:30;25.80;46.10
58529;DHT22;44322;52.968;5.816;2022-08-01T15:00:55;25.70;46.10
58529;DHT22;44322;52.968;5.816;2022-08-01T15:03:21;25.50;46.50
58529;DHT22;44322;52.968;5.816;2022-08-01T15:05:47;25.40;47.40
58529;DHT22;44322;52.968;5.816;2022-08-01T15:08:13;25.20;47.70
58529;DHT22;44322;52.968;5.816;2022-08-01T15:10:39;25.10;47.80
58529;DHT22;44322;52.968;5.816;2022-08-01T15:13:05;25.00;48.00
58529;DHT22;44322;52.968;5.816;2022-08-01T15:15:31;24.90;48.90
58529;DHT22;44322;52.968;5.816;2022-08-01T15:17:57;24.80;49.80
58529;DHT22;44322;52.968;5.816;2022-08-01T15:20:23;24.60;50.40
58529;DHT22;44322;52.968;5.816;2022-08-01T15:22:50;24.60;50.70
58529;DHT22;44322;52.968;5.816;2022-08-01T15:25:16;24.50;51.50
58529;DHT22;44322;52.968;5.816;2022-08-01T15:27:42;24.40;51.30
58529;DHT22;44322;52.968;5.816;2022-08-01T15:30:09;24.30;51.50
58529;DHT22;44322;52.968;5.816;2022-08-01T15:32:35;24.30;50.70
58529;DHT22;44322;52.968;5.816;2022-08-01T15:35:01;24.10;51.10
58529;DHT22;44322;52.968;5.816;2022-08-01T15:37:27;24.10;51.30
58529;DHT22;44322;52.968;5.816;2022-08-01T15:39:53;24.00;50.50
58529;DHT22;44322;52.968;5.816;2022-08-01T15:42:19;24.00;51.50
58529;DHT22;44322;52.968;5.816;2022-08-01T15:44:45;24.00;50.60
58529;DHT22;44322;52.968;5.816;2022-08-01T15:47:12;23.90;50.70
58529;DHT22;44322;52.968;5.816;2022-08-01T15:49:38;23.90;50.70
58529;DHT22;44322;52.968;5.816;2022-08-01T15:52:05;23.80;51.10
58529;DHT22;44322;52.968;5.816;2022-08-01T15:54:31;23.80;51.80
58529;DHT22;44322;52.968;5.816;2022-08-01T15:56:57;23.70;52.60
58529;DHT22;44322;52.968;5.816;2022-08-01T15:59:23;23.70;54.00
58529;DHT22;44322;52.968;5.816;2022-08-01T16:01:49;23.70;54.90
58529;DHT22;44322;52.968;5.816;2022-08-01T16:04:15;23.70;54.00
58529;DHT22;44322;52.968;5.816;2022-08-01T16:06:42;23.60;54.60
58529;DHT22;44322;52.968;5.816;2022-08-01T16:09:08;23.60;55.00
58529;DHT22;44322;52.968;5.816;2022-08-01T16:11:34;23.50;55.20
58529;DHT22;44322;52.968;5.816;2022-08-01T16:14:01;23.50;55.30
58529;DHT22;44322;52.968;5.816;2022-08-01T16:16:27;23.40;56.20
58529;DHT22;44322;52.968;5.816;2022-08-01T16:18:53;23.40;57.40
58529;DHT22;44322;52.968;5.816;2022-08-01T16:21:19;23.30;58.50
58529;DHT22;44322;52.968;5.816;2022-08-01T16:23:45;23.30;59.40